Terminal Aerodrome Forecast
Issued by NWS

Home | Current Version | Previous Version | Text Only | Print | Product List | Glossary On
Versions: 1 2 3 4 5 6 7 8 9 10 11 12 13 14 15 16
000
FTUS43 KIND 202322
TAFHUF
TAF
KHUF 202322Z 2100/2124 23008KT P6SM SCT100 BKN250
     FM210200 22004KT P6SM FEW100 SCT250
      TEMPO 2104/2106 4SM BR=

USA.gov is the U.S. government's official web portal to all federal, state and local government web resources and services.